Terminal Aerodrome Forecast
Issued by NWS Twin Cities, MN

Home | Current Version | Previous Version | Text Only | Print | Product List | Glossary On
Versions: 1 2 3 4 5 6 7 8 9 10 11 12 13 14 15 16 17 18 19 20 21 22 23
000
FTUS43 KMPX 311453 AAB
TAFEAU
TAF AMD
KEAU 311453Z 3115/0112 18005KT P6SM BKN008
     FM311600 19011G18KT P6SM SKC
     FM010000 18007KT P6SM SCT250
     FM011000 18003KT 2SM BR SCT010=

USA.gov is the U.S. government's official web portal to all federal, state and local government web resources and services.